DLH8HT EDDM-EDDF
Flight info
| Callsign | DLH8HT |
|---|---|
| Flight time | 0h 32m |
| Altitude | 24000 |
| Route | GIVMI6S GIVMI Y101 ERNAS T161 DEBHI DEBHI1B |
| Aircraft | A359/H-SDE2E3GHIJ3J4J5LM1ORWXY/LB1D1 |
Departure
| Time | 2026-05-06 15:40 |
|---|---|
| Airport | Munich Airport (EDDM) |
Arrival
| Time | 2026-05-06 16:12 |
|---|---|
| Airport | Frankfurt Main Airport (EDDF) |
| Time | Latitude | Longitude | Altitude | Speed | Heading |
|---|---|---|---|---|---|
| 2026-05-06 15:15 | 48.35789 | 11.79263 | 1492 ft | 0 kts | 263° |
| 2026-05-06 15:22 | 48.35790 | 11.79275 | 1476 ft | 4 kts | 263° |
| 2026-05-06 15:23 | 48.35793 | 11.79315 | 1476 ft | 4 kts | 263° |
| 2026-05-06 15:23 | 48.35795 | 11.79346 | 1476 ft | 4 kts | 272° |
| 2026-05-06 15:23 | 48.35792 | 11.79379 | 1476 ft | 4 kts | 306° |
| 2026-05-06 15:23 | 48.35780 | 11.79397 | 1476 ft | 4 kts | 350° |
| 2026-05-06 15:24 | 48.35755 | 11.79402 | 1476 ft | 4 kts | 353° |
| 2026-05-06 15:24 | 48.35743 | 11.79404 | 1492 ft | 0 kts | 353° |
| 2026-05-06 15:30 | 48.35749 | 11.79403 | 1467 ft | 5 kts | 353° |
| 2026-05-06 15:30 | 48.35801 | 11.79393 | 1481 ft | 9 kts | 353° |
| 2026-05-06 15:31 | 48.35875 | 11.79380 | 1490 ft | 12 kts | 350° |
| 2026-05-06 15:31 | 48.35955 | 11.79340 | 1483 ft | 11 kts | 347° |
| 2026-05-06 15:31 | 48.36010 | 11.79329 | 1488 ft | 0 kts | 353° |
| 2026-05-06 15:32 | 48.36063 | 11.79319 | 1485 ft | 15 kts | 353° |
| 2026-05-06 15:32 | 48.36170 | 11.79316 | 1480 ft | 15 kts | 20° |
| 2026-05-06 15:33 | 48.36213 | 11.79437 | 1483 ft | 14 kts | 83° |
| 2026-05-06 15:33 | 48.36225 | 11.79597 | 1481 ft | 17 kts | 83° |
| 2026-05-06 15:33 | 48.36239 | 11.79788 | 1481 ft | 20 kts | 83° |
| 2026-05-06 15:33 | 48.36257 | 11.80010 | 1492 ft | 22 kts | 83° |
| 2026-05-06 15:34 | 48.36276 | 11.80248 | 1482 ft | 24 kts | 83° |
| 2026-05-06 15:34 | 48.36295 | 11.80513 | 1487 ft | 27 kts | 83° |
| 2026-05-06 15:34 | 48.36316 | 11.80796 | 1484 ft | 22 kts | 84° |
| 2026-05-06 15:34 | 48.36333 | 11.81019 | 1492 ft | 20 kts | 83° |
| 2026-05-06 15:35 | 48.36349 | 11.81222 | 1481 ft | 21 kts | 83° |
| 2026-05-06 15:35 | 48.36367 | 11.81456 | 1486 ft | 24 kts | 83° |
| 2026-05-06 15:35 | 48.36381 | 11.81638 | 1480 ft | 17 kts | 83° |
| 2026-05-06 15:35 | 48.36395 | 11.81814 | 1480 ft | 14 kts | 83° |
| 2026-05-06 15:36 | 48.36393 | 11.81921 | 1479 ft | 11 kts | 99° |
| 2026-05-06 15:36 | 48.36393 | 11.82047 | 1480 ft | 13 kts | 82° |
| 2026-05-06 15:36 | 48.36442 | 11.82136 | 1479 ft | 10 kts | 16° |
| 2026-05-06 15:36 | 48.36511 | 11.82127 | 1488 ft | 10 kts | 353° |
| 2026-05-06 15:37 | 48.36552 | 11.82119 | 1482 ft | 0 kts | 353° |
| 2026-05-06 15:37 | 48.36593 | 11.82112 | 1480 ft | 14 kts | 352° |
| 2026-05-06 15:38 | 48.36669 | 11.82041 | 1482 ft | 12 kts | 304° |
| 2026-05-06 15:38 | 48.36674 | 11.81924 | 1489 ft | 12 kts | 262° |
| 2026-05-06 15:38 | 48.36667 | 11.81852 | 1477 ft | 0 kts | 262° |
| 2026-05-06 15:39 | 48.36660 | 11.81761 | 1484 ft | 34 kts | 263° |
| 2026-05-06 15:39 | 48.36601 | 11.81003 | 1483 ft | 110 kts | 263° |
| 2026-05-06 15:39 | 48.36508 | 11.79560 | 1752 ft | 149 kts | 267° |
| 2026-05-06 15:40 | 48.36408 | 11.78015 | 2657 ft | 150 kts | 265° |
| 2026-05-06 15:40 | 48.36261 | 11.76340 | 3052 ft | 176 kts | 262° |
| 2026-05-06 15:40 | 48.36064 | 11.74383 | 3470 ft | 200 kts | 262° |
| 2026-05-06 15:40 | 48.35872 | 11.72199 | 3924 ft | 221 kts | 264° |
| 2026-05-06 15:41 | 48.35706 | 11.69779 | 4392 ft | 245 kts | 264° |
| 2026-05-06 15:41 | 48.35876 | 11.67232 | 5219 ft | 250 kts | 291° |
| 2026-05-06 15:41 | 48.36756 | 11.64876 | 5968 ft | 265 kts | 303° |
| 2026-05-06 15:41 | 48.37809 | 11.62525 | 6846 ft | 275 kts | 302° |
| 2026-05-06 15:42 | 48.38861 | 11.60091 | 7878 ft | 279 kts | 301° |
| 2026-05-06 15:42 | 48.39956 | 11.57686 | 8922 ft | 283 kts | 307° |
| 2026-05-06 15:42 | 48.41453 | 11.55684 | 9925 ft | 291 kts | 326° |
| 2026-05-06 15:42 | 48.43280 | 11.54240 | 10558 ft | 312 kts | 333° |
| 2026-05-06 15:43 | 48.45341 | 11.52852 | 11038 ft | 334 kts | 334° |
| 2026-05-06 15:43 | 48.47515 | 11.51425 | 11786 ft | 346 kts | 334° |
| 2026-05-06 15:43 | 48.49736 | 11.49967 | 12767 ft | 353 kts | 333° |
| 2026-05-06 15:43 | 48.52009 | 11.48472 | 13660 ft | 360 kts | 333° |
| 2026-05-06 15:44 | 48.54321 | 11.46946 | 14435 ft | 366 kts | 333° |
| 2026-05-06 15:44 | 48.56686 | 11.45383 | 15192 ft | 373 kts | 332° |
| 2026-05-06 15:44 | 48.59085 | 11.43796 | 15950 ft | 380 kts | 332° |
| 2026-05-06 15:44 | 48.61535 | 11.42173 | 16711 ft | 386 kts | 332° |
| 2026-05-06 15:45 | 48.64007 | 11.40535 | 17528 ft | 391 kts | 332° |
| 2026-05-06 15:45 | 48.66508 | 11.38876 | 18306 ft | 396 kts | 332° |
| 2026-05-06 15:45 | 48.69027 | 11.37190 | 19034 ft | 401 kts | 331° |
| 2026-05-06 15:45 | 48.71501 | 11.35208 | 19774 ft | 402 kts | 325° |
| 2026-05-06 15:46 | 48.73893 | 11.32950 | 20547 ft | 405 kts | 322° |
| 2026-05-06 15:46 | 48.76244 | 11.30553 | 21147 ft | 414 kts | 321° |
| 2026-05-06 15:46 | 48.78650 | 11.28024 | 21544 ft | 427 kts | 321° |
| 2026-05-06 15:46 | 48.81120 | 11.25425 | 22069 ft | 437 kts | 321° |
| 2026-05-06 15:47 | 48.83622 | 11.22774 | 22917 ft | 438 kts | 319° |
| 2026-05-06 15:47 | 48.85972 | 11.19830 | 23490 ft | 440 kts | 315° |
| 2026-05-06 15:47 | 48.88270 | 11.16760 | 23724 ft | 438 kts | 314° |
| 2026-05-06 15:47 | 48.90530 | 11.13640 | 23754 ft | 438 kts | 313° |
| 2026-05-06 15:48 | 48.92758 | 11.10513 | 23754 ft | 438 kts | 313° |
| 2026-05-06 15:48 | 48.94991 | 11.07362 | 23760 ft | 438 kts | 313° |
| 2026-05-06 15:48 | 48.97232 | 11.04198 | 23765 ft | 438 kts | 313° |
| 2026-05-06 15:48 | 48.99462 | 11.01047 | 23771 ft | 438 kts | 313° |
| 2026-05-06 15:49 | 49.01694 | 10.97904 | 23774 ft | 437 kts | 313° |
| 2026-05-06 15:49 | 49.03934 | 10.94755 | 23785 ft | 437 kts | 313° |
| 2026-05-06 15:49 | 49.06171 | 10.91611 | 23787 ft | 437 kts | 313° |
| 2026-05-06 15:49 | 49.08400 | 10.88473 | 23793 ft | 437 kts | 313° |
| 2026-05-06 15:50 | 49.10612 | 10.85363 | 23796 ft | 437 kts | 314° |
| 2026-05-06 15:50 | 49.12840 | 10.82218 | 23794 ft | 436 kts | 314° |
| 2026-05-06 15:50 | 49.15061 | 10.79071 | 23797 ft | 436 kts | 314° |
| 2026-05-06 15:50 | 49.17294 | 10.75901 | 23798 ft | 436 kts | 314° |
| 2026-05-06 15:51 | 49.19517 | 10.72742 | 23795 ft | 436 kts | 314° |
| 2026-05-06 15:51 | 49.21699 | 10.69539 | 23798 ft | 434 kts | 311° |
| 2026-05-06 15:51 | 49.23787 | 10.66200 | 23798 ft | 434 kts | 310° |
| 2026-05-06 15:51 | 49.25864 | 10.62862 | 23798 ft | 434 kts | 310° |
| 2026-05-06 15:52 | 49.27960 | 10.59517 | 23795 ft | 434 kts | 310° |
| 2026-05-06 15:52 | 49.30045 | 10.56204 | 23796 ft | 433 kts | 310° |
| 2026-05-06 15:52 | 49.32143 | 10.52875 | 23797 ft | 433 kts | 311° |
| 2026-05-06 15:52 | 49.34240 | 10.49551 | 23799 ft | 433 kts | 311° |
| 2026-05-06 15:53 | 49.36259 | 10.46156 | 23788 ft | 431 kts | 306° |
| 2026-05-06 15:53 | 49.38031 | 10.42446 | 23784 ft | 429 kts | 302° |
| 2026-05-06 15:53 | 49.39726 | 10.38703 | 23787 ft | 429 kts | 302° |
| 2026-05-06 15:53 | 49.41437 | 10.34932 | 23786 ft | 429 kts | 302° |
| 2026-05-06 15:54 | 49.43138 | 10.31190 | 23788 ft | 429 kts | 302° |
| 2026-05-06 15:54 | 49.44852 | 10.27419 | 23749 ft | 429 kts | 302° |
| 2026-05-06 15:54 | 49.46563 | 10.23654 | 23574 ft | 429 kts | 302° |
| 2026-05-06 15:54 | 49.48275 | 10.19881 | 23343 ft | 430 kts | 302° |
| 2026-05-06 15:55 | 49.49983 | 10.16111 | 23065 ft | 430 kts | 302° |
| 2026-05-06 15:55 | 49.51690 | 10.12341 | 22793 ft | 431 kts | 302° |
| 2026-05-06 15:55 | 49.53409 | 10.08541 | 22535 ft | 431 kts | 302° |
| 2026-05-06 15:55 | 49.55101 | 10.04796 | 22090 ft | 433 kts | 302° |
| 2026-05-06 15:56 | 49.56821 | 10.00980 | 21498 ft | 433 kts | 302° |
| 2026-05-06 15:56 | 49.58534 | 9.97173 | 20885 ft | 434 kts | 302° |
| 2026-05-06 15:56 | 49.60262 | 9.93339 | 20262 ft | 436 kts | 302° |
| 2026-05-06 15:56 | 49.61989 | 9.89485 | 19642 ft | 437 kts | 302° |
| 2026-05-06 15:57 | 49.63713 | 9.85632 | 19020 ft | 438 kts | 302° |
| 2026-05-06 15:57 | 49.65444 | 9.81763 | 18387 ft | 421 kts | 302° |
| 2026-05-06 15:57 | 49.67070 | 9.78129 | 17775 ft | 418 kts | 302° |
| 2026-05-06 15:57 | 49.68717 | 9.74430 | 17138 ft | 415 kts | 302° |
| 2026-05-06 15:58 | 49.70340 | 9.70787 | 16564 ft | 409 kts | 302° |
| 2026-05-06 15:58 | 49.71946 | 9.67179 | 15964 ft | 404 kts | 302° |
| 2026-05-06 15:58 | 49.73526 | 9.63622 | 15393 ft | 399 kts | 302° |
| 2026-05-06 15:58 | 49.75185 | 9.60191 | 14871 ft | 399 kts | 310° |
| 2026-05-06 15:59 | 49.77330 | 9.57466 | 14362 ft | 401 kts | 327° |
| 2026-05-06 15:59 | 49.79812 | 9.55520 | 13861 ft | 399 kts | 333° |
| 2026-05-06 15:59 | 49.82332 | 9.53725 | 13325 ft | 397 kts | 334° |
| 2026-05-06 15:59 | 49.84827 | 9.51954 | 12770 ft | 393 kts | 334° |
| 2026-05-06 16:00 | 49.87306 | 9.50194 | 12227 ft | 390 kts | 334° |
| 2026-05-06 16:00 | 49.89766 | 9.48447 | 11683 ft | 387 kts | 334° |
| 2026-05-06 16:00 | 49.92200 | 9.46718 | 11155 ft | 383 kts | 334° |
| 2026-05-06 16:00 | 49.94615 | 9.45002 | 10631 ft | 379 kts | 334° |
| 2026-05-06 16:01 | 49.96970 | 9.43331 | 10115 ft | 360 kts | 334° |
| 2026-05-06 16:01 | 49.99159 | 9.41784 | 9597 ft | 331 kts | 334° |
| 2026-05-06 16:01 | 50.01187 | 9.40363 | 9027 ft | 308 kts | 334° |
| 2026-05-06 16:01 | 50.03081 | 9.39035 | 8477 ft | 291 kts | 333° |
| 2026-05-06 16:02 | 50.04708 | 9.37293 | 7936 ft | 281 kts | 310° |
| 2026-05-06 16:02 | 50.05787 | 9.34816 | 7412 ft | 275 kts | 296° |
| 2026-05-06 16:02 | 50.06641 | 9.32200 | 6895 ft | 273 kts | 294° |
| 2026-05-06 16:02 | 50.07476 | 9.29557 | 6409 ft | 271 kts | 294° |
| 2026-05-06 16:03 | 50.08310 | 9.26908 | 5908 ft | 268 kts | 294° |
| 2026-05-06 16:03 | 50.09132 | 9.24288 | 5388 ft | 272 kts | 294° |
| 2026-05-06 16:03 | 50.09909 | 9.21626 | 5043 ft | 266 kts | 288° |
| 2026-05-06 16:03 | 50.10466 | 9.18922 | 4964 ft | 259 kts | 284° |
| 2026-05-06 16:04 | 50.10944 | 9.16249 | 4969 ft | 261 kts | 284° |
| 2026-05-06 16:04 | 50.11384 | 9.13649 | 4984 ft | 276 kts | 281° |
| 2026-05-06 16:04 | 50.11886 | 9.10700 | 4964 ft | 278 kts | 283° |
| 2026-05-06 16:04 | 50.12395 | 9.07877 | 4972 ft | 264 kts | 283° |
| 2026-05-06 16:05 | 50.12890 | 9.05165 | 4975 ft | 260 kts | 283° |
| 2026-05-06 16:05 | 50.13388 | 9.02439 | 4975 ft | 261 kts | 283° |
| 2026-05-06 16:05 | 50.13884 | 8.99729 | 4980 ft | 261 kts | 283° |
| 2026-05-06 16:05 | 50.14360 | 8.96995 | 4975 ft | 259 kts | 279° |
| 2026-05-06 16:06 | 50.14291 | 8.94221 | 4987 ft | 257 kts | 256° |
| 2026-05-06 16:06 | 50.13754 | 8.91612 | 4982 ft | 245 kts | 248° |
| 2026-05-06 16:06 | 50.13152 | 8.89224 | 4976 ft | 229 kts | 248° |
| 2026-05-06 16:06 | 50.12601 | 8.86977 | 4942 ft | 216 kts | 248° |
| 2026-05-06 16:07 | 50.12077 | 8.84817 | 4725 ft | 211 kts | 249° |
| 2026-05-06 16:07 | 50.11572 | 8.82684 | 4422 ft | 207 kts | 249° |
| 2026-05-06 16:07 | 50.11082 | 8.80618 | 4110 ft | 197 kts | 249° |
| 2026-05-06 16:07 | 50.10625 | 8.78702 | 3843 ft | 186 kts | 249° |
| 2026-05-06 16:08 | 50.10187 | 8.76868 | 3587 ft | 177 kts | 250° |
| 2026-05-06 16:08 | 50.09757 | 8.75059 | 3333 ft | 176 kts | 249° |
| 2026-05-06 16:08 | 50.09329 | 8.73264 | 3093 ft | 176 kts | 250° |
| 2026-05-06 16:08 | 50.08905 | 8.71487 | 2851 ft | 176 kts | 250° |
| 2026-05-06 16:09 | 50.08478 | 8.69696 | 2621 ft | 176 kts | 251° |
| 2026-05-06 16:09 | 50.08054 | 8.67924 | 2398 ft | 175 kts | 251° |
| 2026-05-06 16:09 | 50.07637 | 8.66172 | 2152 ft | 172 kts | 251° |
| 2026-05-06 16:09 | 50.07230 | 8.64468 | 1921 ft | 162 kts | 252° |
| 2026-05-06 16:10 | 50.06850 | 8.62873 | 1706 ft | 149 kts | 252° |
| 2026-05-06 16:10 | 50.06509 | 8.61446 | 1508 ft | 136 kts | 253° |
| 2026-05-06 16:10 | 50.06192 | 8.60113 | 1332 ft | 126 kts | 252° |
| 2026-05-06 16:10 | 50.05895 | 8.58861 | 1162 ft | 123 kts | 251° |
| 2026-05-06 16:11 | 50.05596 | 8.57613 | 969 ft | 123 kts | 251° |
| 2026-05-06 16:11 | 50.05299 | 8.56365 | 808 ft | 122 kts | 250° |
| 2026-05-06 16:11 | 50.05009 | 8.55144 | 648 ft | 121 kts | 252° |
| 2026-05-06 16:11 | 50.04720 | 8.53914 | 481 ft | 121 kts | 252° |
| 2026-05-06 16:12 | 50.04415 | 8.52685 | 366 ft | 121 kts | 252° |
| 2026-05-06 16:12 | 50.04164 | 8.51627 | 337 ft | 66 kts | 250° |
| 2026-05-06 16:12 | 50.04061 | 8.51213 | 335 ft | 35 kts | 246° |
| 2026-05-06 16:12 | 50.03920 | 8.50933 | 329 ft | 32 kts | 221° |
| 2026-05-06 16:13 | 50.03802 | 8.50844 | 336 ft | 0 kts | 157° |
| 2026-05-06 16:13 | 50.03789 | 8.50863 | 336 ft | 8 kts | 134° |
| 2026-05-06 16:13 | 50.03788 | 8.50952 | 338 ft | 9 kts | 78° |
| 2026-05-06 16:13 | 50.03812 | 8.51056 | 351 ft | 12 kts | 68° |
| 2026-05-06 16:14 | 50.03845 | 8.51193 | 345 ft | 16 kts | 69° |
| 2026-05-06 16:14 | 50.03857 | 8.51238 | 350 ft | 0 kts | 69° |
| 2026-05-06 16:14 | 50.03857 | 8.51239 | 350 ft | 0 kts | 69° |
| 2026-05-06 16:14 | 50.03860 | 8.51253 | 347 ft | 8 kts | 69° |
| 2026-05-06 16:15 | 50.03891 | 8.51377 | 348 ft | 14 kts | 69° |
| 2026-05-06 16:15 | 50.03917 | 8.51483 | 348 ft | 17 kts | 69° |
| 2026-05-06 16:15 | 50.03962 | 8.51669 | 348 ft | 20 kts | 69° |
| 2026-05-06 16:15 | 50.04015 | 8.51886 | 352 ft | 23 kts | 69° |
| 2026-05-06 16:16 | 50.04071 | 8.52123 | 356 ft | 24 kts | 70° |
| 2026-05-06 16:16 | 50.04130 | 8.52376 | 354 ft | 25 kts | 69° |
| 2026-05-06 16:16 | 50.04193 | 8.52639 | 362 ft | 27 kts | 70° |
| 2026-05-06 16:16 | 50.04257 | 8.52913 | 365 ft | 28 kts | 70° |
| 2026-05-06 16:17 | 50.04325 | 8.53200 | 372 ft | 27 kts | 70° |
| 2026-05-06 16:17 | 50.04386 | 8.53465 | 380 ft | 25 kts | 71° |
| 2026-05-06 16:17 | 50.04416 | 8.53725 | 382 ft | 26 kts | 81° |
| 2026-05-06 16:17 | 50.04427 | 8.53991 | 382 ft | 24 kts | 86° |
| 2026-05-06 16:18 | 50.04443 | 8.54226 | 381 ft | 22 kts | 83° |
| 2026-05-06 16:18 | 50.04448 | 8.54486 | 376 ft | 26 kts | 107° |
| 2026-05-06 16:18 | 50.04388 | 8.54686 | 372 ft | 19 kts | 131° |
| 2026-05-06 16:18 | 50.04265 | 8.54801 | 364 ft | 24 kts | 161° |
| 2026-05-06 16:19 | 50.04128 | 8.54877 | 364 ft | 14 kts | 159° |
| 2026-05-06 16:19 | 50.04048 | 8.54923 | 362 ft | 13 kts | 160° |
| 2026-05-06 16:19 | 50.03954 | 8.54979 | 364 ft | 16 kts | 159° |
| 2026-05-06 16:19 | 50.03858 | 8.55084 | 362 ft | 17 kts | 100° |
| 2026-05-06 16:20 | 50.03886 | 8.55267 | 362 ft | 19 kts | 69° |
| 2026-05-06 16:20 | 50.03937 | 8.55475 | 362 ft | 20 kts | 69° |
| 2026-05-06 16:20 | 50.03985 | 8.55676 | 362 ft | 21 kts | 70° |
| 2026-05-06 16:20 | 50.04039 | 8.55904 | 363 ft | 24 kts | 70° |
| 2026-05-06 16:21 | 50.04099 | 8.56154 | 367 ft | 26 kts | 69° |
| 2026-05-06 16:21 | 50.04163 | 8.56424 | 365 ft | 27 kts | 69° |
| 2026-05-06 16:21 | 50.04226 | 8.56686 | 369 ft | 26 kts | 70° |
| 2026-05-06 16:21 | 50.04289 | 8.56952 | 369 ft | 27 kts | 70° |
| 2026-05-06 16:22 | 50.04356 | 8.57232 | 373 ft | 28 kts | 70° |
| 2026-05-06 16:22 | 50.04422 | 8.57512 | 369 ft | 27 kts | 70° |
| 2026-05-06 16:22 | 50.04482 | 8.57763 | 374 ft | 23 kts | 69° |
| 2026-05-06 16:22 | 50.04539 | 8.57984 | 374 ft | 17 kts | 54° |
| 2026-05-06 16:23 | 50.04646 | 8.57994 | 371 ft | 17 kts | 335° |
| 2026-05-06 16:23 | 50.04716 | 8.57957 | 369 ft | 9 kts | 347° |
| 2026-05-06 16:23 | 50.04772 | 8.57976 | 368 ft | 7 kts | 41° |